Time;durP1;ratioP1;P1;durP2;ratioP2;P2;SDS_P1;SDS_P2;PMS_P1;PMS_P2;Temp;Humidity;BMP_temperature;BMP_pressure;BME280_temperature;BME280_humidity;BME280_pressure;Samples;Min_cycle;Max_cycle;Signal;HPM_P1;HPM_P2
2022/03/14 00:01:18;;;;;;;1.53;1.00;;;11.30;99.90;;;;;;5047295;28;20492;-72
2022/03/14 00:03:47;;;;;;;1.47;1.37;;;11.20;99.90;;;;;;5047938;28;20961;-71
2022/03/14 00:06:14;;;;;;;1.10;1.00;;;11.20;99.90;;;;;;5048312;28;20538;-72
2022/03/14 00:08:44;;;;;;;1.23;1.13;;;11.20;99.90;;;;;;5048381;28;20453;-71
2022/03/14 00:11:13;;;;;;;1.03;0.80;;;11.10;99.90;;;;;;5048269;28;20457;-71
2022/03/14 00:13:39;;;;;;;1.13;1.13;;;10.90;99.90;;;;;;5048245;28;20506;-72
2022/03/14 00:16:08;;;;;;;1.70;1.60;;;10.80;99.90;;;;;;5048073;28;20494;-72
2022/03/14 00:18:35;;;;;;;2.17;1.50;;;10.70;99.90;;;;;;5048534;28;20495;-73
2022/03/14 00:21:05;;;;;;;1.87;1.73;;;10.70;99.90;;;;;;5048087;28;20461;-73
2022/03/14 00:23:31;;;;;;;1.27;1.17;;;10.70;99.90;;;;;;5045457;28;20454;-71
2022/03/14 00:25:59;;;;;;;1.30;1.20;;;10.70;99.90;;;;;;5046136;28;20453;-71
2022/03/14 00:28:26;;;;;;;2.10;2.00;;;10.70;99.90;;;;;;5048208;28;20531;-72
2022/03/14 00:30:52;;;;;;;1.33;1.23;;;10.80;99.90;;;;;;5047355;28;20452;-72
2022/03/14 00:33:19;;;;;;;1.30;1.20;;;10.80;99.90;;;;;;5047327;28;20860;-73
2022/03/14 00:35:46;;;;;;;4.33;1.20;;;10.80;99.90;;;;;;5047829;28;20892;-73
2022/03/14 00:38:16;;;;;;;1.43;1.20;;;10.90;99.90;;;;;;5047648;28;20460;-72
2022/03/14 00:40:43;;;;;;;1.60;1.30;;;10.90;99.90;;;;;;5047434;28;20950;-71
2022/03/14 00:43:09;;;;;;;1.60;1.00;;;11.00;99.90;;;;;;5046871;28;20580;-72
2022/03/14 00:45:36;;;;;;;1.40;1.03;;;11.00;99.90;;;;;;5050352;28;20456;-71
2022/03/14 00:48:03;;;;;;;2.00;1.80;;;11.00;99.90;;;;;;5051803;28;20953;-73
2022/03/14 00:50:30;;;;;;;1.43;0.80;;;11.00;99.90;;;;;;5050819;28;20452;-72
2022/03/14 00:52:56;;;;;;;1.40;1.30;;;11.00;99.90;;;;;;5051132;28;20455;-73
2022/03/14 00:55:24;;;;;;;1.83;1.37;;;11.00;99.90;;;;;;5051779;28;20464;-73
2022/03/14 00:57:51;;;;;;;1.07;0.97;;;11.00;99.90;;;;;;5051556;28;20488;-73
2022/03/14 01:00:18;;;;;;;2.60;1.40;;;11.00;99.90;;;;;;5045705;28;20902;-71
2022/03/14 01:02:48;;;;;;;1.77;1.10;;;10.90;99.90;;;;;;5051004;28;20918;-72
2022/03/14 01:05:14;;;;;;;1.20;1.10;;;10.90;99.90;;;;;;5051506;28;20474;-71
2022/03/14 01:07:41;;;;;;;1.40;1.30;;;10.90;99.90;;;;;;5051034;28;20475;-72
2022/03/14 01:10:08;;;;;;;1.37;1.27;;;10.80;99.90;;;;;;5050769;28;20498;-72
2022/03/14 01:12:37;;;;;;;1.60;1.50;;;10.70;99.90;;;;;;5049657;28;20862;-72
2022/03/14 01:15:04;;;;;;;1.63;1.40;;;10.70;99.90;;;;;;5050093;28;20946;-72
2022/03/14 01:17:30;;;;;;;1.50;1.40;;;10.60;99.90;;;;;;5050882;28;20475;-72
2022/03/14 01:19:57;;;;;;;1.53;1.30;;;10.40;99.90;;;;;;5051488;28;20935;-72
2022/03/14 01:22:24;;;;;;;1.67;1.53;;;10.30;99.90;;;;;;5050914;28;20492;-72
2022/03/14 01:24:50;;;;;;;1.90;1.67;;;10.20;99.90;;;;;;5050145;28;20510;-71
2022/03/14 01:27:17;;;;;;;1.47;1.37;;;10.20;99.90;;;;;;5050525;28;20472;-71
2022/03/14 01:29:45;;;;;;;2.53;1.77;;;10.10;99.90;;;;;;5050756;28;20563;-71
2022/03/14 01:32:12;;;;;;;1.67;1.57;;;10.00;99.90;;;;;;5049486;28;20456;-71
2022/03/14 01:34:38;;;;;;;2.20;1.83;;;9.90;99.90;;;;;;5048492;28;20452;-72
2022/03/14 01:37:05;;;;;;;2.40;1.90;;;9.90;99.90;;;;;;5049562;28;20511;-71
2022/03/14 01:39:32;;;;;;;2.60;1.80;;;9.90;99.90;;;;;;5051510;28;20494;-73
2022/03/14 01:41:58;;;;;;;1.70;1.60;;;9.90;99.90;;;;;;5050554;28;20491;-72
2022/03/14 01:44:26;;;;;;;1.60;1.50;;;9.90;99.90;;;;;;5050330;28;20989;-72
2022/03/14 01:46:55;;;;;;;2.07;1.87;;;9.70;99.90;;;;;;5049904;28;20579;-72
2022/03/14 01:49:22;;;;;;;1.53;1.43;;;9.70;99.90;;;;;;5050748;28;20903;-72
2022/03/14 01:51:52;;;;;;;1.63;1.53;;;9.70;99.90;;;;;;5051000;28;20448;-72
2022/03/14 01:54:19;;;;;;;2.20;2.00;;;9.60;99.90;;;;;;5050053;28;20535;-72
2022/03/14 01:56:47;;;;;;;1.60;1.50;;;9.60;99.90;;;;;;5051016;28;20537;-73
2022/03/14 01:59:14;;;;;;;1.53;1.43;;;9.60;99.90;;;;;;5050027;28;21185;-73
2022/03/14 02:01:41;;;;;;;2.27;1.60;;;9.50;99.90;;;;;;5050106;28;20533;-74
2022/03/14 02:04:09;;;;;;;3.23;1.63;;;9.50;99.90;;;;;;5049811;28;20482;-73
2022/03/14 02:06:36;;;;;;;2.50;1.90;;;9.50;99.90;;;;;;5049966;28;20480;-72
2022/03/14 02:09:03;;;;;;;1.73;1.63;;;9.50;99.90;;;;;;5049129;28;20452;-73
2022/03/14 02:11:30;;;;;;;1.70;1.60;;;9.50;99.90;;;;;;5049370;28;20448;-72
2022/03/14 02:13:56;;;;;;;2.37;2.10;;;9.50;99.90;;;;;;5048945;28;20486;-73
2022/03/14 02:16:23;;;;;;;3.17;2.30;;;9.40;99.90;;;;;;5050559;28;20460;-73
2022/03/14 02:18:49;;;;;;;2.80;2.27;;;9.40;99.90;;;;;;5049216;28;20460;-73
2022/03/14 02:21:17;;;;;;;2.70;2.42;;;9.40;99.90;;;;;;5049624;28;20525;-73
2022/03/14 02:23:44;;;;;;;2.03;1.83;;;9.30;99.90;;;;;;5048960;28;20969;-72
2022/03/14 02:26:11;;;;;;;2.10;1.90;;;9.30;99.90;;;;;;5048455;28;20457;-72
2022/03/14 02:28:38;;;;;;;3.70;2.20;;;9.30;99.90;;;;;;5048669;28;20479;-73
2022/03/14 02:31:05;;;;;;;3.50;3.03;;;9.20;99.90;;;;;;5049285;28;20212;-74
2022/03/14 02:33:32;;;;;;;3.65;2.63;;;9.20;99.90;;;;;;5048983;28;20448;-73
2022/03/14 02:35:59;;;;;;;2.97;2.35;;;9.20;99.90;;;;;;5048605;28;20214;-73
2022/03/14 02:38:27;;;;;;;3.40;2.90;;;9.20;99.90;;;;;;5049601;28;20582;-75
2022/03/14 02:40:54;;;;;;;3.03;1.77;;;9.20;99.90;;;;;;5048551;28;20456;-75
2022/03/14 02:43:24;;;;;;;2.97;2.67;;;9.10;99.90;;;;;;5048328;28;20492;-75
2022/03/14 02:45:51;;;;;;;3.63;2.73;;;9.10;99.90;;;;;;5049707;28;20456;-75
2022/03/14 02:48:19;;;;;;;3.47;3.13;;;9.10;99.90;;;;;;5046742;28;21025;-74
2022/03/14 02:50:48;;;;;;;2.95;2.75;;;9.10;99.90;;;;;;5048508;28;20457;-75
2022/03/14 02:53:15;;;;;;;4.75;2.45;;;9.00;99.90;;;;;;5047473;28;20197;-76
2022/03/14 02:55:44;;;;;;;3.53;2.70;;;9.00;99.90;;;;;;5048911;28;20213;-75
2022/03/14 02:58:11;;;;;;;2.92;2.15;;;8.90;99.90;;;;;;5049055;28;20857;-75
2022/03/14 03:00:37;;;;;;;4.47;3.20;;;8.90;99.90;;;;;;5049491;28;20206;-75
2022/03/14 03:03:06;;;;;;;4.57;2.40;;;8.90;99.90;;;;;;5048761;28;20271;-74
2022/03/14 03:05:35;;;;;;;2.58;2.38;;;8.90;99.90;;;;;;5048529;28;20514;-74
2022/03/14 03:08:03;;;;;;;5.00;2.63;;;8.90;99.90;;;;;;5048090;28;20257;-74
2022/03/14 03:10:32;;;;;;;3.92;2.25;;;8.80;99.90;;;;;;5049152;28;20213;-74
2022/03/14 03:13:01;;;;;;;4.38;3.97;;;8.80;99.90;;;;;;5026124;28;20202;-75
2022/03/14 03:15:28;;;;;;;2.60;2.40;;;8.80;99.90;;;;;;5029839;28;20210;-73
2022/03/14 03:17:55;;;;;;;3.78;3.47;;;8.80;99.90;;;;;;5030562;28;20998;-73
2022/03/14 03:20:22;;;;;;;2.60;2.40;;;8.80;99.90;;;;;;5025057;28;20255;-72
2022/03/14 03:22:50;;;;;;;4.30;2.85;;;8.80;99.90;;;;;;5024591;28;20225;-74
2022/03/14 03:25:17;;;;;;;5.75;3.25;;;8.80;99.90;;;;;;5026909;28;20244;-74
2022/03/14 03:27:44;;;;;;;6.55;2.78;;;8.80;99.90;;;;;;5023624;28;20282;-72
2022/03/14 03:30:13;;;;;;;2.45;2.25;;;8.80;99.90;;;;;;5022760;28;20560;-74
2022/03/14 03:32:39;;;;;;;2.97;2.67;;;8.80;99.90;;;;;;5021965;28;20201;-74
2022/03/14 03:35:07;;;;;;;3.50;3.20;;;8.80;99.90;;;;;;5022247;28;20209;-75
2022/03/14 03:37:34;;;;;;;4.22;2.90;;;8.80;99.90;;;;;;5022942;28;20217;-74
2022/03/14 03:40:01;;;;;;;3.78;3.47;;;8.80;99.90;;;;;;5025553;28;20206;-76
2022/03/14 03:42:27;;;;;;;3.05;2.42;;;8.80;99.90;;;;;;5025688;28;20217;-73
2022/03/14 03:44:54;;;;;;;3.25;2.97;;;8.80;99.90;;;;;;5023000;28;20201;-74
2022/03/14 03:47:24;;;;;;;4.13;3.00;;;8.80;99.90;;;;;;5028180;28;20290;-74
2022/03/14 03:49:50;;;;;;;4.47;2.53;;;8.80;99.90;;;;;;5025287;28;20205;-74
2022/03/14 03:52:17;;;;;;;5.97;4.22;;;8.80;99.90;;;;;;5027921;28;20209;-74
2022/03/14 03:54:44;;;;;;;4.80;3.60;;;8.80;99.90;;;;;;5027357;28;20202;-75
2022/03/14 03:57:10;;;;;;;5.55;3.30;;;8.80;99.90;;;;;;5022390;28;20484;-74
2022/03/14 03:59:37;;;;;;;4.78;4.35;;;8.80;99.90;;;;;;5023036;28;20792;-74
2022/03/14 04:02:05;;;;;;;5.43;4.28;;;8.80;99.90;;;;;;5027163;28;20251;-74
2022/03/14 04:04:36;;;;;;;5.60;4.55;;;8.80;99.90;;;;;;5027192;28;20231;-73
2022/03/14 04:07:04;;;;;;;6.05;4.63;;;8.80;99.90;;;;;;5024229;28;20233;-74
2022/03/14 04:09:31;;;;;;;7.68;5.38;;;8.70;99.90;;;;;;5023403;28;20197;-73
2022/03/14 04:11:57;;;;;;;4.78;3.42;;;8.70;99.90;;;;;;5026331;28;20212;-75
2022/03/14 04:14:24;;;;;;;7.90;6.15;;;8.80;99.90;;;;;;5026229;28;20193;-73
2022/03/14 04:16:51;;;;;;;7.22;5.60;;;8.70;99.90;;;;;;5028335;28;20229;-74
2022/03/14 04:19:17;;;;;;;5.57;5.07;;;8.70;99.90;;;;;;5020939;28;20202;-73
2022/03/14 04:21:52;;;;;;;4.63;4.22;;;8.80;99.90;;;;;;5025078;28;20922;-74
2022/03/14 04:24:20;;;;;;;5.53;4.50;;;8.80;99.90;;;;;;5026927;28;20321;-73
2022/03/14 04:26:47;;;;;;;6.13;5.43;;;8.70;99.90;;;;;;5033800;28;20468;-72
2022/03/14 04:29:14;;;;;;;6.25;4.50;;;8.80;99.90;;;;;;5028388;28;21076;-75
2022/03/14 04:31:41;;;;;;;4.63;4.22;;;8.80;99.90;;;;;;5030213;28;20228;-73
2022/03/14 04:34:07;;;;;;;3.35;3.00;;;8.80;99.90;;;;;;5034125;28;20194;-73
2022/03/14 04:36:34;;;;;;;3.90;3.55;;;8.70;99.90;;;;;;5027366;28;20209;-72
2022/03/14 04:39:04;;;;;;;3.38;3.17;;;8.70;99.90;;;;;;5028933;28;20201;-72
2022/03/14 04:41:37;;;;;;;5.07;2.80;;;8.70;99.90;;;;;;5029758;28;20209;-74
2022/03/14 04:44:05;;;;;;;3.50;2.80;;;8.70;99.90;;;;;;5023999;28;20268;-74
2022/03/14 04:46:32;;;;;;;2.35;2.15;;;8.70;99.90;;;;;;5030037;28;20243;-72
2022/03/14 04:48:59;;;;;;;3.08;2.78;;;8.70;99.90;;;;;;5030537;28;20283;-73
2022/03/14 04:51:25;;;;;;;2.58;2.25;;;8.60;99.90;;;;;;5028503;28;20209;-72
2022/03/14 04:53:52;;;;;;;2.65;2.10;;;8.60;99.90;;;;;;5027598;28;20198;-72
2022/03/14 04:56:20;;;;;;;2.10;1.90;;;8.60;99.90;;;;;;5030351;28;20205;-72
2022/03/14 04:58:47;;;;;;;1.88;1.58;;;8.60;99.90;;;;;;5024128;28;20212;-73
2022/03/14 05:01:14;;;;;;;2.60;2.40;;;8.60;99.90;;;;;;5029677;28;20198;-73
2022/03/14 05:03:40;;;;;;;2.47;1.83;;;8.60;99.90;;;;;;5032909;28;20288;-73
2022/03/14 05:06:07;;;;;;;3.85;3.20;;;8.60;99.90;;;;;;5024139;28;20209;-73
2022/03/14 05:08:34;;;;;;;4.55;2.63;;;8.60;99.90;;;;;;5028497;28;20237;-73
2022/03/14 05:11:00;;;;;;;4.20;2.30;;;8.60;99.90;;;;;;5029323;28;20232;-73
2022/03/14 05:13:28;;;;;;;2.72;2.40;;;8.60;99.90;;;;;;5033083;28;20267;-73
2022/03/14 05:15:55;;;;;;;3.30;2.55;;;8.60;99.90;;;;;;5033773;28;20223;-73
2022/03/14 05:18:22;;;;;;;3.20;2.35;;;8.50;99.90;;;;;;5035405;28;20937;-73
2022/03/14 05:20:48;;;;;;;3.05;2.38;;;8.50;99.90;;;;;;5032288;28;20206;-73
2022/03/14 05:23:15;;;;;;;2.15;1.95;;;8.50;99.90;;;;;;5034853;28;20217;-73
2022/03/14 05:25:42;;;;;;;2.15;1.95;;;8.50;99.90;;;;;;5027731;28;20205;-73
2022/03/14 05:28:09;;;;;;;3.10;2.33;;;8.50;99.90;;;;;;5033171;28;20275;-73
2022/03/14 05:30:37;;;;;;;2.80;2.40;;;8.50;99.90;;;;;;5035837;28;20288;-73
2022/03/14 05:33:03;;;;;;;3.20;2.70;;;8.50;99.90;;;;;;5026648;28;20221;-72
2022/03/14 05:35:30;;;;;;;3.03;2.58;;;8.50;99.90;;;;;;5025834;28;20214;-73
2022/03/14 05:37:57;;;;;;;2.72;2.40;;;8.50;99.90;;;;;;5034698;28;20230;-72
2022/03/14 05:40:23;;;;;;;1.88;1.73;;;8.50;99.90;;;;;;5029789;28;20244;-71
2022/03/14 05:42:51;;;;;;;2.85;2.65;;;8.50;99.90;;;;;;5030491;28;20256;-73
2022/03/14 05:45:19;;;;;;;5.57;2.63;;;8.40;99.90;;;;;;5030468;28;20221;-71
2022/03/14 05:47:48;;;;;;;2.33;2.13;;;8.50;99.90;;;;;;5039645;28;20213;-72
2022/03/14 05:50:15;;;;;;;1.70;1.60;;;8.40;99.90;;;;;;5050259;28;20617;-73
2022/03/14 05:52:42;;;;;;;3.10;2.65;;;8.40;99.90;;;;;;5049292;28;20228;-74
2022/03/14 05:55:09;;;;;;;3.35;2.05;;;8.40;99.90;;;;;;5050595;28;20221;-72
2022/03/14 05:57:36;;;;;;;2.53;2.22;;;8.40;99.90;;;;;;5046763;28;20323;-72
2022/03/14 06:00:04;;;;;;;2.65;2.00;;;8.40;99.90;;;;;;5048430;28;20240;-72
2022/03/14 06:02:30;;;;;;;4.03;1.98;;;8.30;99.90;;;;;;5049540;28;20264;-72
2022/03/14 06:04:58;;;;;;;2.97;1.65;;;8.20;99.90;;;;;;5049880;28;20230;-72
2022/03/14 06:07:25;;;;;;;2.90;1.48;;;8.10;99.90;;;;;;5049954;28;20287;-73
2022/03/14 06:09:52;;;;;;;0.85;0.85;;;8.10;99.90;;;;;;5050385;28;20206;-73
2022/03/14 06:12:25;;;;;;;1.38;1.27;;;8.10;99.90;;;;;;5049824;28;20299;-73
2022/03/14 06:14:53;;;;;;;1.90;1.60;;;8.00;99.90;;;;;;5049540;28;20640;-73
2022/03/14 06:17:21;;;;;;;4.32;1.27;;;8.00;99.90;;;;;;5057313;28;20241;-72
2022/03/14 06:19:47;;;;;;;1.70;1.60;;;8.00;99.90;;;;;;5057150;28;20225;-71
2022/03/14 06:22:16;;;;;;;2.78;2.38;;;8.10;99.90;;;;;;5061189;28;20859;-71
2022/03/14 06:24:46;;;;;;;2.72;1.92;;;8.10;99.90;;;;;;5047133;28;20233;-72
2022/03/14 06:27:14;;;;;;;2.17;1.63;;;8.10;99.90;;;;;;5048033;28;20253;-72
2022/03/14 06:29:41;;;;;;;4.55;1.77;;;8.10;99.90;;;;;;5047763;28;20280;-72
2022/03/14 06:32:08;;;;;;;2.05;1.63;;;8.20;99.90;;;;;;5048575;28;20202;-72
2022/03/14 06:34:35;;;;;;;2.00;1.65;;;8.20;99.90;;;;;;5049347;28;20232;-71
2022/03/14 06:37:02;;;;;;;2.65;2.45;;;8.20;99.90;;;;;;5049536;28;20230;-72
2022/03/14 06:39:30;;;;;;;3.90;2.58;;;8.20;99.90;;;;;;5047405;28;20231;-72
2022/03/14 06:41:57;;;;;;;3.83;2.53;;;8.20;99.90;;;;;;5045534;28;20741;-73
2022/03/14 06:44:25;;;;;;;2.70;2.35;;;8.20;99.90;;;;;;5047130;28;20236;-73
2022/03/14 06:46:53;;;;;;;2.55;2.33;;;8.20;99.90;;;;;;5049850;28;20249;-71
2022/03/14 06:49:20;;;;;;;6.72;2.17;;;8.20;99.90;;;;;;5048737;28;20205;-72
2022/03/14 06:51:47;;;;;;;2.13;1.90;;;8.20;99.90;;;;;;5047854;28;20209;-73
2022/03/14 06:54:14;;;;;;;2.53;2.33;;;8.30;99.90;;;;;;5046846;28;20233;-71
2022/03/14 06:56:42;;;;;;;2.50;2.30;;;8.30;99.90;;;;;;5044904;28;20271;-72
2022/03/14 06:59:09;;;;;;;2.33;2.13;;;8.30;99.90;;;;;;5043852;28;20273;-72
2022/03/14 07:01:36;;;;;;;6.38;2.88;;;8.40;99.90;;;;;;5045919;28;20208;-71
2022/03/14 07:04:03;;;;;;;4.53;2.70;;;8.40;99.90;;;;;;5048374;28;20217;-70
2022/03/14 07:06:30;;;;;;;2.20;2.00;;;8.40;99.90;;;;;;5048710;28;20193;-72
2022/03/14 07:08:56;;;;;;;2.30;2.10;;;8.50;99.90;;;;;;5047768;28;20737;-71
2022/03/14 07:11:23;;;;;;;2.13;1.95;;;8.50;99.90;;;;;;5049394;28;20201;-73
2022/03/14 07:13:51;;;;;;;2.45;2.25;;;8.60;99.90;;;;;;5047876;28;20201;-71
2022/03/14 07:16:18;;;;;;;2.50;2.30;;;8.60;99.90;;;;;;5045056;28;20704;-73
2022/03/14 07:18:46;;;;;;;2.33;2.10;;;8.60;99.90;;;;;;5044666;28;20657;-72
2022/03/14 07:21:13;;;;;;;2.07;1.97;;;8.70;99.90;;;;;;5048730;28;20460;-72
2022/03/14 07:23:39;;;;;;;3.00;1.95;;;8.80;99.90;;;;;;5047068;28;20480;-72
2022/03/14 07:26:06;;;;;;;6.00;2.47;;;8.80;99.90;;;;;;5046764;28;20202;-72
2022/03/14 07:28:33;;;;;;;2.23;2.03;;;8.80;99.90;;;;;;5048706;28;20472;-71
2022/03/14 07:31:01;;;;;;;3.97;2.37;;;8.80;99.90;;;;;;5049092;28;20570;-71
2022/03/14 07:33:28;;;;;;;3.37;2.30;;;8.90;99.90;;;;;;5048912;28;20448;-72
2022/03/14 07:35:55;;;;;;;2.40;2.10;;;8.90;99.90;;;;;;5047535;28;20535;-72
2022/03/14 07:38:21;;;;;;;2.67;2.00;;;9.00;99.90;;;;;;5046962;28;20229;-72
2022/03/14 07:40:48;;;;;;;3.87;2.60;;;9.00;99.90;;;;;;5048384;28;20455;-72
2022/03/14 07:43:15;;;;;;;6.22;2.70;;;9.00;99.90;;;;;;5047602;28;20491;-72
2022/03/14 07:45:42;;;;;;;3.10;2.80;;;9.00;99.90;;;;;;5048182;28;20213;-72
2022/03/14 07:48:10;;;;;;;2.60;2.33;;;9.10;99.90;;;;;;5046301;28;20496;-73
2022/03/14 07:50:37;;;;;;;3.63;2.53;;;9.10;99.90;;;;;;5034322;28;20458;-72
2022/03/14 07:53:04;;;;;;;4.57;2.60;;;9.20;99.90;;;;;;5044959;28;20867;-71
2022/03/14 07:55:31;;;;;;;4.13;2.13;;;9.30;99.90;;;;;;5047545;28;20993;-72
2022/03/14 07:57:57;;;;;;;3.40;2.43;;;9.40;99.90;;;;;;5046985;28;20495;-71
2022/03/14 08:00:24;;;;;;;2.40;2.00;;;9.60;99.90;;;;;;5047756;28;20456;-73
2022/03/14 08:02:51;;;;;;;6.00;2.20;;;9.80;99.90;;;;;;5047309;28;20452;-72
2022/03/14 08:05:24;;;;;;;4.40;2.33;;;9.90;99.90;;;;;;5043811;28;20488;-71
2022/03/14 08:07:51;;;;;;;3.00;2.27;;;10.00;99.90;;;;;;5046576;28;20888;-72
2022/03/14 08:10:18;;;;;;;1.83;1.57;;;10.10;99.90;;;;;;5047573;28;20444;-72
2022/03/14 08:12:49;;;;;;;3.33;1.90;;;10.10;99.90;;;;;;5046723;28;20526;-72
2022/03/14 08:15:20;;;;;;;3.97;2.53;;;10.10;99.90;;;;;;5047447;28;20969;-72
2022/03/14 08:17:47;;;;;;;2.63;2.43;;;10.20;99.90;;;;;;5046803;28;21136;-71
2022/03/14 08:20:14;;;;;;;4.83;1.80;;;10.30;99.90;;;;;;5035153;28;21029;-71
2022/03/14 08:22:42;;;;;;;2.73;2.07;;;10.40;99.90;;;;;;5042868;28;20452;-72
2022/03/14 08:25:10;;;;;;;3.40;2.20;;;10.50;99.90;;;;;;5045923;28;20568;-73
2022/03/14 08:27:36;;;;;;;1.83;1.70;;;10.70;99.90;;;;;;5047339;28;20464;-72
2022/03/14 08:30:04;;;;;;;3.17;2.63;;;10.70;99.90;;;;;;5045844;28;20462;-72
2022/03/14 08:32:32;;;;;;;2.70;1.73;;;10.80;99.90;;;;;;5047455;28;21055;-72
2022/03/14 08:35:06;;;;;;;2.40;2.20;;;10.90;99.90;;;;;;5047639;28;20441;-72
2022/03/14 08:37:33;;;;;;;3.27;2.20;;;11.00;99.90;;;;;;5045942;28;21099;-72
2022/03/14 08:40:01;;;;;;;2.50;2.30;;;11.10;99.90;;;;;;5046043;28;20480;-72
2022/03/14 08:42:28;;;;;;;1.60;1.37;;;11.10;99.90;;;;;;5046539;28;20518;-71
2022/03/14 08:44:54;;;;;;;1.50;1.40;;;11.20;99.90;;;;;;5046439;28;20484;-72
2022/03/14 08:47:21;;;;;;;2.60;1.80;;;11.30;99.90;;;;;;5047480;28;21366;-72
2022/03/14 08:49:48;;;;;;;1.40;1.30;;;11.40;99.90;;;;;;5048088;28;20947;-72
2022/03/14 08:52:15;;;;;;;1.83;1.73;;;11.50;99.90;;;;;;5047299;28;20949;-72
2022/03/14 08:54:41;;;;;;;2.13;1.60;;;11.60;99.90;;;;;;5046106;28;20447;-72
2022/03/14 08:57:10;;;;;;;1.90;1.60;;;11.80;99.90;;;;;;5045178;28;21135;-72
2022/03/14 08:59:37;;;;;;;2.07;1.57;;;11.90;99.90;;;;;;5046894;28;20455;-72
2022/03/14 09:02:04;;;;;;;2.40;1.87;;;11.90;99.90;;;;;;5045431;28;20463;-72
2022/03/14 09:04:32;;;;;;;3.73;2.40;;;12.00;99.90;;;;;;5046677;28;20563;-72
2022/03/14 09:06:59;;;;;;;1.37;1.27;;;12.10;99.90;;;;;;5049833;28;20479;-72
2022/03/14 09:09:25;;;;;;;2.83;1.57;;;12.10;99.90;;;;;;5050738;28;20460;-71
2022/03/14 09:11:52;;;;;;;7.50;1.77;;;12.10;99.90;;;;;;5047599;28;20973;-71
2022/03/14 09:14:20;;;;;;;1.00;0.90;;;12.10;99.90;;;;;;5048718;28;20459;-73
2022/03/14 09:16:48;;;;;;;2.23;0.87;;;12.10;99.90;;;;;;5050239;28;20463;-71
2022/03/14 09:19:15;;;;;;;3.90;1.47;;;12.10;99.90;;;;;;5049978;28;20876;-70
2022/03/14 09:21:41;;;;;;;1.87;1.33;;;12.00;99.90;;;;;;5050385;28;20456;-71
2022/03/14 09:24:08;;;;;;;2.07;1.40;;;12.00;99.90;;;;;;5049667;28;20529;-71
2022/03/14 09:26:37;;;;;;;1.47;0.93;;;12.00;99.90;;;;;;5050262;28;20502;-71
2022/03/14 09:29:06;;;;;;;1.70;1.60;;;11.90;99.90;;;;;;5050097;28;20459;-72
2022/03/14 09:31:34;;;;;;;4.50;1.30;;;11.90;99.90;;;;;;5047402;28;20519;-71
2022/03/14 09:34:01;;;;;;;1.70;1.10;;;12.00;99.90;;;;;;5045109;28;20805;-71
2022/03/14 09:36:27;;;;;;;1.53;1.43;;;12.10;99.90;;;;;;5048448;28;20479;-71
2022/03/14 09:38:54;;;;;;;1.50;1.40;;;12.20;99.90;;;;;;5077935;22;20507;-71
2022/03/14 09:41:21;;;;;;;1.63;1.20;;;12.30;99.90;;;;;;5065601;28;20444;-71
2022/03/14 09:43:51;;;;;;;5.50;1.43;;;12.30;99.90;;;;;;5066543;28;20452;-71
2022/03/14 09:46:20;;;;;;;1.73;1.63;;;12.30;99.90;;;;;;5065298;28;20478;-70
2022/03/14 09:48:51;;;;;;;1.50;1.30;;;12.30;99.90;;;;;;5064730;28;20479;-70
2022/03/14 09:51:19;;;;;;;1.40;1.30;;;12.30;99.90;;;;;;5067406;28;20447;-71
2022/03/14 09:53:46;;;;;;;1.20;1.10;;;12.30;99.90;;;;;;5054288;28;20452;-71
2022/03/14 09:56:13;;;;;;;2.53;1.03;;;12.40;99.90;;;;;;5052279;28;20447;-71
2022/03/14 09:58:40;;;;;;;2.53;1.40;;;12.40;99.90;;;;;;5056751;28;20471;-71
2022/03/14 10:01:08;;;;;;;1.40;1.27;;;12.40;99.90;;;;;;5058165;28;20445;-70
2022/03/14 10:03:35;;;;;;;1.20;1.10;;;12.60;99.90;;;;;;5059902;28;20474;-70
2022/03/14 10:06:03;;;;;;;2.10;1.27;;;12.70;99.90;;;;;;5057153;28;20491;-71
2022/03/14 10:08:32;;;;;;;1.97;1.87;;;12.60;99.90;;;;;;5053119;28;20499;-71
2022/03/14 10:10:59;;;;;;;1.23;0.90;;;12.80;99.90;;;;;;5054395;28;20452;-70
2022/03/14 10:13:26;;;;;;;1.83;1.50;;;12.90;99.90;;;;;;5053151;28;20455;-70
2022/03/14 10:15:53;;;;;;;2.30;1.10;;;13.10;99.90;;;;;;5043859;28;20953;-70
2022/03/14 10:18:19;;;;;;;1.20;1.10;;;13.40;99.90;;;;;;5051375;28;20555;-71
2022/03/14 10:20:57;;;;;;;2.10;1.20;;;13.70;99.90;;;;;;5051874;28;20533;-71
2022/03/14 10:23:35;;;;;;;1.13;0.80;;;14.00;99.90;;;;;;5052905;28;20979;-71
2022/03/14 10:26:02;;;;;;;1.27;1.17;;;14.20;99.90;;;;;;5051056;28;20483;-71
2022/03/14 10:28:31;;;;;;;1.27;1.00;;;14.60;99.90;;;;;;5051850;28;20914;-71
2022/03/14 10:31:01;;;;;;;1.17;1.07;;;15.00;99.90;;;;;;5072513;28;20448;-70
2022/03/14 10:33:28;;;;;;;1.33;1.23;;;15.20;99.90;;;;;;5072550;28;20491;-71
2022/03/14 10:35:55;;;;;;;3.60;1.90;;;15.20;99.90;;;;;;5058105;28;20954;-71
2022/03/14 10:38:22;;;;;;;1.40;1.30;;;14.80;99.90;;;;;;5051757;28;20475;-71
2022/03/14 10:40:51;;;;;;;1.00;0.83;;;14.50;99.90;;;;;;5054088;28;20448;-70
2022/03/14 10:43:30;;;;;;;2.43;1.10;;;14.20;99.90;;;;;;5054407;28;20527;-70
2022/03/14 10:45:58;;;;;;;0.73;0.73;;;14.10;99.90;;;;;;5052113;28;20511;-71
2022/03/14 10:48:38;;;;;;;1.00;0.80;;;14.10;99.90;;;;;;5052469;28;20468;-71
2022/03/14 10:51:06;;;;;;;3.03;0.87;;;14.00;99.90;;;;;;5052613;28;20506;-70
2022/03/14 10:53:34;;;;;;;1.23;0.83;;;13.90;99.90;;;;;;5053565;28;20474;-70
2022/03/14 10:56:03;;;;;;;1.17;1.07;;;13.80;99.90;;;;;;5053912;28;20452;-70
2022/03/14 10:58:33;;;;;;;0.93;0.70;;;14.20;99.90;;;;;;5055189;28;20537;-70
2022/03/14 11:01:02;;;;;;;0.80;0.80;;;14.50;99.90;;;;;;5052886;28;20544;-70
2022/03/14 11:03:30;;;;;;;2.63;0.93;;;14.50;99.90;;;;;;5051463;28;20538;-72
2022/03/14 11:06:02;;;;;;;0.90;0.70;;;14.80;99.90;;;;;;5051215;28;20491;-70
2022/03/14 11:08:30;;;;;;;1.03;0.83;;;15.00;99.90;;;;;;5051025;28;20472;-69
2022/03/14 11:10:58;;;;;;;0.90;0.60;;;14.90;99.90;;;;;;5051204;28;20467;-64
2022/03/14 11:13:27;;;;;;;1.50;1.00;;;14.80;99.90;;;;;;5057729;28;20460;-66
2022/03/14 11:15:56;;;;;;;0.97;0.70;;;14.90;99.90;;;;;;5060505;28;20440;-64
2022/03/14 11:18:23;;;;;;;1.17;0.80;;;15.20;99.90;;;;;;5062355;28;20483;-66
2022/03/14 11:20:51;;;;;;;1.33;0.90;;;15.40;99.90;;;;;;5065872;28;20451;-65
2022/03/14 11:23:19;;;;;;;3.23;1.27;;;15.50;99.90;;;;;;5049291;28;20840;-65
2022/03/14 11:25:46;;;;;;;0.87;0.60;;;15.30;99.90;;;;;;5051263;28;20484;-63
2022/03/14 11:28:16;;;;;;;1.03;0.93;;;15.00;99.90;;;;;;5051136;28;20484;-64
2022/03/14 11:30:57;;;;;;;2.83;1.00;;;14.90;99.90;;;;;;5049747;28;20598;-64
2022/03/14 11:33:24;;;;;;;0.60;0.50;;;14.90;99.90;;;;;;5051364;28;20456;-64
2022/03/14 11:35:51;;;;;;;1.13;0.70;;;14.80;99.90;;;;;;5052586;28;20455;-65
2022/03/14 11:38:18;;;;;;;0.97;0.87;;;14.80;99.90;;;;;;5054834;28;20598;-65
2022/03/14 11:40:45;;;;;;;2.33;1.10;;;14.70;99.90;;;;;;5051681;28;20452;-65
2022/03/14 11:43:13;;;;;;;0.80;0.60;;;14.40;99.90;;;;;;5051014;28;20900;-64
2022/03/14 11:45:41;;;;;;;1.40;1.07;;;14.20;99.90;;;;;;5051265;28;20565;-65
2022/03/14 11:48:10;;;;;;;0.80;0.80;;;14.10;99.90;;;;;;5050603;28;21087;-68
2022/03/14 11:50:45;;;;;;;2.10;1.10;;;14.10;99.90;;;;;;5037273;28;20485;-70
2022/03/14 11:53:19;;;;;;;1.60;1.20;;;14.10;99.90;;;;;;5052283;28;20530;-68
2022/03/14 11:55:53;;;;;;;0.70;0.70;;;14.00;99.90;;;;;;5049490;28;20447;-67
2022/03/14 11:58:34;;;;;;;0.70;0.60;;;13.80;99.90;;;;;;5051175;28;20591;-68
2022/03/14 12:01:16;;;;;;;0.80;0.80;;;13.60;99.90;;;;;;5050045;28;20507;-68
2022/03/14 12:03:49;;;;;;;1.17;0.80;;;13.50;99.90;;;;;;5042692;28;20475;-69
2022/03/14 12:06:16;;;;;;;1.47;1.37;;;13.40;99.90;;;;;;5059665;28;20496;-68
2022/03/14 12:09:01;;;;;;;1.60;1.00;;;13.30;99.90;;;;;;5071173;28;20467;-69
2022/03/14 12:11:49;;;;;;;1.43;0.87;;;13.30;99.90;;;;;;5062938;28;20534;-74
2022/03/14 12:14:39;;;;;;;3.70;0.90;;;13.40;99.90;;;;;;5061800;28;20961;-68
2022/03/14 12:17:23;;;;;;;1.17;0.70;;;13.50;99.90;;;;;;5047745;28;20447;-68
2022/03/14 12:19:53;;;;;;;1.10;0.90;;;13.60;99.90;;;;;;5047594;28;20459;-68
2022/03/14 12:22:44;;;;;;;1.30;0.80;;;13.60;99.90;;;;;;5050224;28;20452;-68
2022/03/14 12:25:35;;;;;;;2.00;1.43;;;13.80;99.90;;;;;;5047314;28;20507;-70
2022/03/14 12:28:31;;;;;;;0.70;0.70;;;13.90;99.90;;;;;;5050270;28;20475;-68
2022/03/14 12:30:59;;;;;;;1.00;0.60;;;14.20;99.90;;;;;;5049952;28;20458;-68
2022/03/14 12:33:34;;;;;;;1.00;0.83;;;14.40;99.90;;;;;;5048620;28;20460;-69
2022/03/14 12:36:34;;;;;;;1.10;0.70;;;14.80;99.90;;;;;;5045318;28;20481;-68
2022/03/14 12:39:22;;;;;;;0.60;0.57;;;15.00;99.90;;;;;;5041190;28;20476;-67
2022/03/14 12:41:49;;;;;;;1.13;0.80;;;15.00;99.90;;;;;;5049253;28;20454;-70
2022/03/14 12:44:17;;;;;;;1.17;1.07;;;15.10;99.90;;;;;;5050981;28;20734;-69
2022/03/14 12:46:45;;;;;;;2.07;1.10;;;15.00;99.90;;;;;;5052557;28;20491;-69
2022/03/14 12:49:11;;;;;;;1.53;1.33;;;14.80;99.90;;;;;;5052290;28;20488;-67
2022/03/14 12:51:40;;;;;;;1.53;0.90;;;14.80;99.90;;;;;;5053091;28;20452;-69
2022/03/14 12:54:09;;;;;;;4.10;3.63;;;14.80;99.90;;;;;;5051588;28;20459;-70
2022/03/14 12:56:39;;;;;;;2.33;0.90;;;14.70;99.90;;;;;;5054219;28;20444;-69
2022/03/14 12:59:09;;;;;;;0.70;0.70;;;14.50;99.90;;;;;;5057317;28;20488;-69